Time;durP1;ratioP1;P1;durP2;ratioP2;P2;SDS_P1;SDS_P2;PMS_P1;PMS_P2;Temp;Humidity;BMP_temperature;BMP_pressure;BME280_temperature;BME280_humidity;BME280_pressure;Samples;Min_cycle;Max_cycle;Signal;HPM_P1;HPM_P2
2022/06/03 04:46:23;;;;;;;4.22;3.05;;;;;;;19.67;87.93;100391.59;1784614;80;21028;-39
2022/06/03 04:49:25;;;;;;;17.23;4.17;;;;;;;19.51;88.96;100389.04;1722141;83;21675;-42
2022/06/03 04:52:35;;;;;;;9.70;3.40;;;;;;;19.37;90.81;100394.38;1714221;82;22334;-48
2022/06/03 04:55:30;;;;;;;7.78;3.00;;;;;;;19.27;92.01;100389.44;1684243;83;21069;-48
2022/06/03 04:58:17;;;;;;;8.40;3.20;;;;;;;19.17;91.60;100382.70;1678927;83;21082;-48
2022/06/03 05:01:41;;;;;;;4.17;3.75;;;;;;;19.11;93.17;100372.71;1685944;83;21046;-48
2022/06/03 05:04:32;;;;;;;;;;;;;;;19.06;93.91;100372.45;1695640;83;21572;-48
2022/06/03 05:07:47;;;;;;;3.85;3.02;;;;;;;18.97;95.28;100370.13;1674681;83;20122;-48
2022/06/03 05:10:54;;;;;;;7.90;3.10;;;;;;;18.90;96.30;100366.79;1715469;82;21037;-48
2022/06/03 05:13:55;;;;;;;4.12;3.10;;;;;;;18.87;97.14;100375.72;1655184;85;21070;-48
2022/06/03 05:16:39;;;;;;;6.50;3.08;;;;;;;18.85;98.41;100377.57;1687544;83;21059;-48
2022/06/03 05:19:15;;;;;;;5.90;3.00;;;;;;;18.84;99.40;100373.62;1687144;83;21038;-47
2022/06/03 05:22:10;;;;;;;4.62;2.95;;;;;;;18.82;98.27;100372.35;1688542;83;21381;-47
2022/06/03 05:25:29;;;;;;;6.40;3.15;;;;;;;18.83;98.62;100379.84;1660281;84;21098;-47
2022/06/03 05:28:49;;;;;;;5.30;3.35;;;;;;;18.86;99.06;100384.59;1639527;85;21114;-47
2022/06/03 05:31:48;;;;;;;4.60;3.00;;;;;;;18.93;99.72;100389.23;1674934;85;21604;-46
2022/06/03 05:34:56;;;;;;;5.35;3.40;;;;;;;19.02;98.99;100411.94;1686267;83;21398;-47
2022/06/03 05:37:40;;;;;;;4.80;3.10;;;;;;;19.10;99.53;100413.87;1685612;83;21040;-47
2022/06/03 05:40:41;;;;;;;4.90;3.83;;;;;;;19.20;100.00;100418.42;1681441;83;20999;-47
2022/06/03 05:43:28;;;;;;;4.65;3.37;;;;;;;19.28;99.09;100430.95;1638139;83;21955;-48
2022/06/03 05:46:11;;;;;;;6.28;3.02;;;;;;;19.36;98.24;100444.81;1680934;83;21451;-48
2022/06/03 05:49:01;;;;;;;8.48;3.52;;;;;;;19.42;98.13;100452.55;1682489;83;21032;-47
2022/06/03 05:51:50;;;;;;;6.78;3.55;;;;;;;19.49;98.09;100458.55;1675431;83;20990;-47
2022/06/03 05:54:48;;;;;;;6.58;3.33;;;;;;;19.51;97.30;100470.83;1620381;87;21397;-48
2022/06/03 05:57:38;;;;;;;4.25;3.33;;;;;;;19.51;95.92;100480.58;1624823;87;21062;-48
2022/06/03 06:00:20;;;;;;;4.85;3.17;;;;;;;19.48;95.62;100486.88;1631794;86;21032;-47
2022/06/03 06:03:12;;;;;;;6.58;3.85;;;;;;;19.49;95.52;100492.58;1618911;86;21107;-47
2022/06/03 06:06:10;;;;;;;4.03;2.90;;;;;;;19.51;95.13;100504.45;1628586;86;21493;-48
2022/06/03 06:08:47;;;;;;;6.95;3.33;;;;;;;19.50;95.89;100516.86;1630044;86;21028;-48
2022/06/03 06:11:34;;;;;;;8.40;3.30;;;;;;;19.52;96.49;100528.28;1628167;86;21612;-48
2022/06/03 06:14:15;;;;;;;6.12;4.10;;;;;;;19.53;96.32;100535.78;1628632;86;21048;-48
2022/06/03 06:16:45;;;;;;;11.55;3.70;;;;;;;19.53;96.34;100538.44;1637592;86;21041;-48
2022/06/03 06:19:36;;;;;;;3.65;3.27;;;;;;;19.52;95.83;100534.91;1630748;86;21013;-48
2022/06/03 06:22:21;;;;;;;5.97;3.92;;;;;;;19.49;95.87;100540.34;1626119;86;21060;-48
2022/06/03 06:25:07;;;;;;;6.58;4.20;;;;;;;19.47;96.62;100546.13;1616748;86;21340;-48
2022/06/03 06:28:00;;;;;;;5.25;3.92;;;;;;;19.46;97.45;100544.41;1626236;86;21085;-48
2022/06/03 06:30:56;;;;;;;3.87;3.47;;;;;;;19.48;97.94;100545.24;1627759;86;21038;-48
2022/06/03 06:33:46;;;;;;;5.65;4.00;;;;;;;19.48;98.32;100548.33;1718584;82;21521;-48
2022/06/03 06:37:03;;;;;;;5.20;4.40;;;;;;;19.44;98.54;100546.25;1728274;82;21481;-48
2022/06/03 06:39:56;;;;;;;4.85;4.03;;;;;;;19.44;99.40;100550.69;1727162;82;21472;-48
2022/06/03 06:42:35;;;;;;;8.43;4.67;;;;;;;19.41;98.89;100543.68;1725752;82;21025;-48
2022/06/03 06:45:22;;;;;;;4.72;3.85;;;;;;;19.38;98.48;100542.47;1727273;82;21029;-48
2022/06/03 06:48:00;;;;;;;7.80;4.55;;;;;;;19.38;99.14;100541.14;1655386;85;21033;-48
2022/06/03 06:50:51;;;;;;;9.15;4.00;;;;;;;19.37;99.01;100537.63;1661039;86;21119;-48
2022/06/03 06:53:48;;;;;;;4.95;4.28;;;;;;;19.36;99.39;100541.63;1690165;83;21644;-48
2022/06/03 06:56:32;;;;;;;5.55;3.90;;;;;;;19.34;99.12;100540.36;1681503;83;21569;-48
2022/06/03 06:59:04;;;;;;;6.72;3.98;;;;;;;19.32;99.78;100544.00;1662913;85;21093;-49
2022/06/03 07:01:38;;;;;;;7.67;3.98;;;;;;;19.32;99.37;100554.15;1638978;86;21123;-48
2022/06/03 07:04:12;;;;;;;6.05;4.17;;;;;;;19.31;99.54;100548.44;1690356;83;21529;-48
2022/06/03 07:06:51;;;;;;;8.38;4.17;;;;;;;19.30;99.36;100550.66;1694115;83;21571;-48
2022/06/03 07:09:53;;;;;;;4.05;3.55;;;;;;;19.31;98.73;100554.20;1680512;85;21402;-48
2022/06/03 07:12:24;;;;;;;5.42;4.92;;;;;;;19.30;98.26;100556.42;1680980;83;21074;-47
2022/06/03 07:14:57;;;;;;;6.90;5.85;;;;;;;19.36;99.18;100565.51;1682572;83;20995;-47
2022/06/03 07:21:00;;;;;;;10.82;6.95;;;;;;;19.67;99.00;100574.72;1686534;83;21437;-48
2022/06/03 07:23:41;;;;;;;9.08;8.18;;;;;;;19.95;97.77;100583.96;1600379;87;21150;-48
2022/06/03 07:26:42;;;;;;;11.30;9.40;;;;;;;20.09;94.98;100594.09;1592500;88;21036;-47
2022/06/03 07:29:25;;;;;;;11.33;10.08;;;;;;;20.15;93.55;100589.44;1603152;88;21110;-47
2022/06/03 07:32:00;;;;;;;10.08;9.08;;;;;;;20.28;93.07;100589.87;1595228;88;21076;-47
2022/06/03 07:34:52;;;;;;;17.35;10.40;;;;;;;20.42;92.00;100595.58;1571117;90;21194;-47
2022/06/03 07:37:38;;;;;;;11.50;9.70;;;;;;;20.55;90.62;100592.50;1538182;91;21620;-48
2022/06/03 07:40:30;;;;;;;10.88;9.78;;;;;;;20.66;90.97;100596.50;1558666;90;21929;-47
2022/06/03 07:43:23;;;;;;;11.53;10.33;;;;;;;20.79;88.49;100596.05;1557244;90;21112;-47
2022/06/03 07:45:58;;;;;;;;;;;;;;;20.89;88.34;100602.76;1600385;88;21091;-48
2022/06/03 07:48:27;;;;;;;16.65;11.55;;;;;;;20.99;88.72;100599.70;1608047;86;20150;-48
2022/06/03 07:51:09;;;;;;;27.65;18.87;;;;;;;21.09;87.96;100604.18;1617677;88;21035;-48
2022/06/03 07:53:47;;;;;;;27.07;23.00;;;;;;;21.14;87.21;100598.69;1617268;87;21144;-48
2022/06/03 07:56:22;;;;;;;27.15;21.30;;;;;;;21.13;85.61;100603.14;1593088;88;21045;-48
2022/06/03 07:58:52;;;;;;;26.27;20.72;;;;;;;21.05;85.56;100604.34;1590662;88;21087;-47
2022/06/03 08:01:25;;;;;;;20.72;17.85;;;;;;;21.07;87.90;100607.84;1687504;82;21082;-48
2022/06/03 08:03:53;;;;;;;20.05;17.95;;;;;;;21.21;86.10;100605.03;1716971;82;21607;-48
2022/06/03 08:12:14;;;;;;;13.50;11.30;;;;;;;21.20;83.36;100618.41;1718585;82;20105;-47
2022/06/03 08:14:42;;;;;;;10.70;9.13;;;;;;;21.22;85.17;100617.44;1673875;85;21396;-47
2022/06/03 08:17:09;;;;;;;10.72;9.30;;;;;;;21.32;83.50;100615.30;1720367;82;21033;-48
2022/06/03 08:19:37;;;;;;;9.63;8.03;;;;;;;21.41;82.01;100618.94;1716204;82;21049;-47
2022/06/03 08:22:08;;;;;;;13.78;8.05;;;;;;;21.45;80.63;100621.89;1721929;82;21563;-47
2022/06/03 08:24:36;;;;;;;9.90;6.80;;;;;;;21.42;80.72;100619.80;1724682;82;21026;-47
2022/06/03 08:27:15;;;;;;;10.10;6.83;;;;;;;21.47;80.30;100625.34;1720949;82;21009;-47
2022/06/03 08:29:47;;;;;;;7.17;6.20;;;;;;;21.55;79.48;100618.84;1721118;82;21001;-47
2022/06/03 08:32:23;;;;;;;11.12;6.60;;;;;;;21.60;79.34;100617.72;1717092;82;21040;-47
2022/06/03 08:34:51;;;;;;;6.97;5.67;;;;;;;21.64;79.88;100626.00;1729292;82;21028;-47
2022/06/03 08:37:25;;;;;;;10.85;5.40;;;;;;;21.70;78.70;100636.40;1723466;82;21599;-47
2022/06/03 08:39:54;;;;;;;7.95;6.10;;;;;;;21.71;77.51;100627.95;1723983;82;21041;-47
2022/06/03 08:42:50;;;;;;;7.17;5.55;;;;;;;21.69;77.97;100626.69;1727231;82;21064;-47
2022/06/03 08:45:40;;;;;;;6.42;5.80;;;;;;;21.70;78.29;100622.22;1722676;82;20983;-47
2022/06/03 08:48:14;;;;;;;8.10;5.95;;;;;;;21.77;77.95;100621.90;1706775;82;21061;-47
2022/06/03 08:50:58;;;;;;;6.55;5.28;;;;;;;21.84;77.12;100624.31;1700872;83;21529;-47
2022/06/03 08:53:50;;;;;;;6.12;4.62;;;;;;;21.97;77.22;100617.06;1677688;83;21078;-48
2022/06/03 08:56:27;;;;;;;7.00;5.33;;;;;;;22.22;76.92;100618.74;1703733;83;21010;-47
2022/06/03 08:59:07;;;;;;;7.00;5.08;;;;;;;22.47;75.32;100615.39;1697694;83;21081;-47
2022/06/03 09:01:51;;;;;;;6.33;5.65;;;;;;;22.67;75.02;100622.53;1704494;83;21022;-47
2022/06/03 09:04:26;;;;;;;6.87;4.78;;;;;;;22.75;73.87;100627.03;1650651;86;21057;-47
2022/06/03 09:07:24;;;;;;;8.23;6.97;;;;;;;22.80;72.96;100618.83;1642909;86;21594;-47
2022/06/03 09:10:26;;;;;;;7.58;5.53;;;;;;;22.73;70.99;100626.25;1665877;85;21018;-47
2022/06/03 09:13:13;;;;;;;5.78;5.17;;;;;;;22.63;72.18;100620.92;1706153;83;21046;-47
2022/06/03 09:15:43;;;;;;;4.83;4.37;;;;;;;22.75;73.54;100615.50;1705107;83;21034;-47
2022/06/03 09:18:28;;;;;;;6.10;5.50;;;;;;;22.89;72.14;100614.42;1672464;83;21110;-47
2022/06/03 09:20:59;;;;;;;6.03;5.22;;;;;;;22.95;72.00;100625.28;1703220;83;21031;-48
2022/06/03 09:23:26;;;;;;;8.33;5.47;;;;;;;22.89;71.25;100625.56;1698913;83;21042;-48
2022/06/03 09:25:56;;;;;;;7.65;5.17;;;;;;;22.83;71.37;100628.01;1703008;83;21010;-47
2022/06/03 09:28:31;;;;;;;8.25;5.15;;;;;;;22.92;71.90;100631.64;1699844;83;21147;-48
2022/06/03 09:30:59;;;;;;;6.12;5.47;;;;;;;23.06;71.00;100620.31;1702827;83;21496;-48
2022/06/03 09:33:27;;;;;;;6.22;4.90;;;;;;;23.13;70.41;100626.23;1698730;83;21101;-48
2022/06/03 09:35:57;;;;;;;7.55;4.92;;;;;;;23.07;69.45;100628.71;1694713;83;21494;-48
2022/06/03 09:38:26;;;;;;;6.45;5.33;;;;;;;22.95;70.35;100619.95;1697863;83;21050;-48
2022/06/03 09:40:58;;;;;;;8.63;5.58;;;;;;;22.91;70.84;100621.05;1703785;83;21038;-53
2022/06/03 09:43:28;;;;;;;5.03;4.53;;;;;;;22.90;70.88;100620.16;1703133;83;21953;-48
2022/06/03 09:45:56;;;;;;;5.50;4.75;;;;;;;22.90;69.56;100621.48;1700947;83;21014;-49
2022/06/03 09:48:27;;;;;;;7.25;5.85;;;;;;;22.90;70.10;100628.16;1713752;82;21050;-48
2022/06/03 09:50:56;;;;;;;9.55;7.28;;;;;;;22.92;71.14;100629.44;1731064;82;21042;-48
2022/06/03 09:53:26;;;;;;;7.45;6.20;;;;;;;22.90;70.18;100627.29;1723764;82;21105;-48
2022/06/03 09:55:59;;;;;;;8.00;7.20;;;;;;;22.86;70.16;100633.22;1729356;82;21805;-49
2022/06/03 09:58:30;;;;;;;10.13;7.33;;;;;;;22.84;71.17;100625.73;1728043;82;21101;-49
2022/06/03 10:00:58;;;;;;;10.60;9.43;;;;;;;22.89;71.81;100630.90;1712115;83;20982;-49
2022/06/03 10:03:25;;;;;;;13.05;7.90;;;;;;;22.98;70.44;100629.16;1717288;82;21057;-49
2022/06/03 10:05:54;;;;;;;7.95;6.47;;;;;;;23.06;70.49;100627.84;1724903;82;21090;-47
2022/06/03 10:08:28;;;;;;;8.53;7.72;;;;;;;23.13;70.35;100625.75;1725466;82;21083;-47
2022/06/03 10:13:42;;;;;;;7.25;6.42;;;;;;;23.10;69.56;100625.45;1734904;81;21117;-47
2022/06/03 10:16:10;;;;;;;8.40;7.42;;;;;;;23.09;70.07;100625.52;1732365;81;21028;-47
2022/06/03 10:18:49;;;;;;;9.05;7.45;;;;;;;23.07;68.96;100631.38;1712507;82;21085;-47
2022/06/03 10:21:21;;;;;;;6.00;5.40;;;;;;;22.97;69.27;100628.30;1731217;81;20990;-47
2022/06/03 10:24:01;;;;;;;7.25;6.55;;;;;;;22.98;70.50;100631.36;1729175;81;21072;-47
2022/06/03 10:26:39;;;;;;;10.18;6.22;;;;;;;23.02;69.28;100632.95;1723026;81;21036;-47
2022/06/03 10:29:13;;;;;;;7.85;7.20;;;;;;;23.08;69.14;100630.47;1733533;81;21050;-48
2022/06/03 10:31:40;;;;;;;8.43;7.45;;;;;;;23.15;66.88;100631.91;1735408;81;21002;-47
2022/06/03 10:34:14;;;;;;;8.33;6.72;;;;;;;23.20;67.38;100625.03;1723893;82;21089;-47
2022/06/03 10:36:44;;;;;;;10.85;7.60;;;;;;;23.33;66.85;100621.70;1730237;82;21470;-48
2022/06/03 10:39:16;;;;;;;11.33;7.90;;;;;;;23.47;65.76;100621.49;1725587;82;21029;-48
2022/06/03 10:41:47;;;;;;;7.85;6.97;;;;;;;23.52;64.14;100623.00;1727482;82;21502;-48
2022/06/03 10:44:21;;;;;;;9.18;7.65;;;;;;;23.41;64.37;100613.30;1719396;82;21025;-47
2022/06/03 10:46:57;;;;;;;9.05;7.47;;;;;;;23.38;65.93;100609.47;1721610;83;21576;-40
2022/06/03 10:49:27;;;;;;;8.53;7.28;;;;;;;23.41;65.04;100622.66;1689973;84;21669;-40
2022/06/03 11:03:09;;;;;;;10.00;8.03;;;;;;;23.76;64.84;100600.93;1730241;81;21057;-40
2022/06/03 11:05:37;;;;;;;12.33;7.53;;;;;;;23.80;65.14;100597.65;1711975;83;20978;-47
2022/06/03 11:08:08;;;;;;;10.72;7.22;;;;;;;23.79;64.87;100601.27;1662805;84;21053;-47
2022/06/03 11:10:43;;;;;;;9.35;6.72;;;;;;;23.78;65.00;100600.88;1727918;83;20986;-41
2022/06/03 11:13:12;;;;;;;7.65;6.55;;;;;;;23.81;62.91;100600.23;1727788;82;21054;-40
2022/06/03 11:15:45;;;;;;;8.20;6.47;;;;;;;23.81;62.79;100589.55;1720478;83;20986;-41
2022/06/03 11:18:29;;;;;;;9.30;6.20;;;;;;;23.80;62.84;100598.52;1717014;83;21528;-41
2022/06/03 11:20:57;;;;;;;7.10;6.50;;;;;;;23.83;63.56;100597.48;1728151;83;20949;-40
2022/06/03 11:23:23;;;;;;;8.48;7.20;;;;;;;23.88;62.01;100598.98;1660811;85;21106;-40
2022/06/03 11:25:56;;;;;;;10.68;7.75;;;;;;;23.84;62.92;100596.09;1712251;83;21049;-42
2022/06/03 11:28:39;;;;;;;9.73;7.83;;;;;;;23.75;63.06;100604.55;1697162;83;21105;-41
2022/06/03 11:31:25;;;;;;;11.95;6.95;;;;;;;23.67;63.05;100595.20;1684704;84;21014;-40
2022/06/03 11:34:03;;;;;;;7.53;6.78;;;;;;;23.52;64.36;100593.63;1684082;85;21207;-40
2022/06/03 11:36:40;;;;;;;8.58;7.65;;;;;;;23.52;64.36;100593.63;1706526;83;21057;-40
2022/06/03 11:39:22;;;;;;;7.10;6.40;;;;;;;23.56;64.17;100599.22;1665560;85;21084;-45
2022/06/03 11:41:57;;;;;;;8.18;6.87;;;;;;;23.57;64.05;100602.76;1709893;83;21552;-41
2022/06/03 11:44:39;;;;;;;10.50;7.10;;;;;;;23.56;63.74;100596.55;1727186;82;21028;-41
2022/06/03 11:47:28;;;;;;;8.45;6.95;;;;;;;23.57;64.01;100596.08;1676603;85;21065;-47
2022/06/03 11:49:55;;;;;;;8.93;6.75;;;;;;;23.55;63.90;100599.31;1667916;85;21100;-40
2022/06/03 11:52:23;;;;;;;8.58;6.33;;;;;;;23.52;63.75;100590.95;1672164;85;21457;-41
2022/06/03 11:54:54;;;;;;;9.05;6.83;;;;;;;23.55;63.57;100589.49;1666186;86;21072;-47
2022/06/03 11:57:21;;;;;;;8.43;6.75;;;;;;;23.58;64.94;100588.46;1662376;86;21073;-40
2022/06/03 12:00:08;;;;;;;14.78;6.67;;;;;;;23.63;64.52;100579.79;1659323;86;21080;-47
2022/06/03 12:03:21;;;;;;;7.10;6.50;;;;;;;23.68;63.31;100583.58;1658871;85;21022;-48
2022/06/03 12:05:53;;;;;;;7.70;6.22;;;;;;;23.66;63.80;100589.00;1659539;86;21493;-48
2022/06/03 12:08:26;;;;;;;10.25;6.40;;;;;;;23.63;63.17;100583.80;1643658;86;21128;-40
2022/06/03 12:11:09;;;;;;;7.37;5.45;;;;;;;23.55;63.10;100585.48;1666422;86;21572;-48
2022/06/03 12:13:38;;;;;;;7.12;5.97;;;;;;;23.50;63.30;100580.84;1606859;89;21096;-40
